Terminal Aerodrome Forecast
Issued by NWS

Home | Current Version | Previous Version | Text Only | Print | Product List | Glossary On
Versions: 1 2 3 4 5 6 7 8 9 10 11 12 13 14 15 16 17 18 19 20 21 22 23 24 25
000
FTUS46 KSEW 162321
TAFSEA
TAF
KSEA 162321Z 1700/1806 29007KT P6SM SCT050
     FM170300 32008KT P6SM BKN050
     FM170600 01006KT P6SM FEW022 BKN050
     FM170900 VRB03KT P6SM OVC012
     FM171900 28006KT P6SM SCT250
     FM172000 32007KT P6SM SCT250=

USA.gov is the U.S. government's official web portal to all federal, state and local government web resources and services.